Gilleleje, Denmark
Current Conditions -  °F | °C
As of 6:20 AM on Wednesday 26 Nov 2014 (Local Time) from ESTA Reporting Station
Broken Clouds Broken Clouds  
Wind Chill: 38°   Ceiling: 2300
Heat Index: 41°   Visibility: 6mi
Dew Point: 39°   Wind: 5mph
Humidity: 93%   Direction: 100°E
Pressure: 30.27"   Gusts: NA
Location:  56.12°N, 12.31°E
Report Text: ESTA 260520Z 10004KT 9999 BKN023 05/04 Q1025
Loading
Personal Weather Stations






























Interactive Weather Map New forecast layout! Learn more

10-Day Weather Forecast

Advertisements
Track Severe Weather on mobile